Thursday, March 23, 2017, 12:19 AM EDT

KPHF, Williamsburg International Airport

Location: Newport News, VA, United States Lat: 37.133
Local Time: 12:19 AM EDT ( 4:19 GMT) Lon: -76.5
Time Zone: US/Eastern Elev: 42 ft

Show me the last for .
Show Decoded

2017-03-22 23:54 METAR KPHF 230354Z 02007KT 10SM CLR 04/M08 A3045 RMK AO2 SLP311 T00441078 =
2017-03-22 22:54 METAR KPHF 230254Z 02005KT 10SM CLR 04/M07 A3043 RMK AO2 SLP303 T00441072 51030
                 =
2017-03-22 21:54 METAR KPHF 230154Z 04007KT 10SM CLR 04/M08 A3040 RMK AO2 SLP293 T00391078 =
2017-03-22 20:54 METAR KPHF 230054Z AUTO 36006KT 10SM CLR 05/M09 A3037 RMK AO2 SLP284 T00501089 =
2017-03-22 19:54 METAR KPHF 222354Z 01004KT 10SM CLR 06/M09 A3034 RMK AO2 SLP273 T00611089 10117
                 20061 51033 =
2017-03-22 18:54 METAR KPHF 222254Z 35009KT 10SM CLR 08/M10 A3031 RMK AO2 SLP263 T00831100 =
2017-03-22 17:54 METAR KPHF 222154Z 34013G19KT 10SM CLR 10/M09 A3027 RMK AO2 SLP250 T01001094 =
2017-03-22 16:54 METAR KPHF 222054Z 01014G22KT 10SM CLR 10/M11 A3024 RMK AO2 PK WND 34026/1956
                 SLP240 T01001106 53012 =
2017-03-22 15:54 METAR KPHF 221954Z 34019G26KT 10SM CLR 11/M11 A3023 RMK AO2 PK WND 33027/1920
                 SLP236 T01061106 =
2017-03-22 14:54 METAR KPHF 221854Z 36016G21KT 10SM CLR 11/M09 A3021 RMK AO2 PK WND 36029/1807
                 SLP230 T01061094 =
2017-03-22 13:54 METAR KPHF 221754Z 36014G25KT 10SM CLR 11/M09 A3021 RMK AO2 PK WND 33029/1735
                 SLP228 T01061089 10133 20100 51022 =
2017-03-22 12:54 METAR KPHF 221654Z 34019G26KT 10SM CLR 10/M11 A3020 RMK AO2 PK WND 31028/1637
                 SLP225 T01001111 =
2017-03-22 11:54 METAR KPHF 221554Z 36016G26KT 10SM CLR 11/M07 A3017 RMK AO2 PK WND 33032/1527
                 SLP217 T01061067 =
2017-03-22 10:54 METAR KPHF 221454Z 36018G28KT 10SM CLR 11/M04 A3014 RMK AO2 PK WND 35031/1418
                 SLP205 T01061044 53053 =
2017-03-22 09:54 METAR KPHF 221354Z 35021G29KT 10SM CLR 12/M01 A3008 RMK AO2 PK WND 36030/1329
                 PRESRR SLP186 T01221006 =
2017-03-22 08:54 METAR KPHF 221254Z 36013G19KT 10SM SCT070 BKN120 13/05 A3002 RMK AO2 SLP164
                 T01330050 =
2017-03-22 07:54 METAR KPHF 221154Z 36006KT 10SM OVC065 11/07 A2998 RMK AO2 RAE1055 SLP152 P0000
                 60000 T01110067 10111 20083 53021 =
2017-03-22 06:54 METAR KPHF 221054Z 30005KT 10SM -RA OVC055 11/07 A2996 RMK AO2 RAB46 SLP146
                 P0000 T01060067 =
2017-03-22 05:54 METAR KPHF 220954Z 32003KT 10SM OVC049 10/07 A2994 RMK AO2 SLP137 T01000067 =
2017-03-22 04:54 METAR KPHF 220854Z 35003KT 10SM BKN049 OVC095 10/07 A2992 RMK AO2 SLP131 60000
                 T01000067 58004 =
2017-03-22 03:54 METAR KPHF 220754Z 20005KT 10SM BKN049 OVC095 10/07 A2993 RMK AO2 RAB28E48
                 SLP133 P0000 T01000067 =
2017-03-22 02:54 METAR KPHF 220654Z 22005KT 10SM BKN050 OVC065 09/07 A2993 RMK AO2 SLP135
                 T00890067 =
2017-03-22 01:54 METAR KPHF 220554Z 00000KT 10SM BKN050 09/06 A2993 RMK AO2 SLP135 T00890061
                 10094 20067 58006 =
2017-03-22 00:54 METAR KPHF 220454Z 00000KT 10SM SCT050 08/06 A2995 RMK AO2 SLP140 T00780056
                 401940067 =

Support USWX by starting your Amazon purchase here.